AirNav   Everest Fuels
 
 1430 users online  

7PA7 Wayne Memorial Hospital Heliport
Honesdale, Pennsylvania, USA

GOING TO HONESDALE?


FAA INFORMATION EFFECTIVE 07 NOVEMBER 2019

Location

FAA Identifier: 7PA7
Lat/Long: 41-35-23.4100N 075-15-43.0000W
41-35.390167N 075-15.716667W
41.5898361,-75.2619444
(estimated)
Elevation: 982 ft. / 299 m (estimated)
From city: 1 mile N of HONESDALE, PA
Time zone: UTC -5 (UTC -4 during Daylight Saving Time)
Zip code: 18431

Heliport Operations

Heliport use: Private use. Permission required prior to landing
Activation date: 10/2016
Control tower: no
ARTCC: NEW YORK CENTER
FSS: WILLIAMSPORT FLIGHT SERVICE STATION
Attendance: 
Wind indicator: yes
Segmented circle: no

Nearby radio navigation aids

VOR radial/distance  VOR name  Freq  Var
LVZr055/27.0WILKES-BARRE VORTAC111.6010W
HNKr186/28.5HANCOCK VOR/DME116.8011W
HUOr301/32.0HUGUENOT VOR/DME116.1011W
DNYr212/37.8DELANCEY VOR/DME112.1011W
STWr345/39.8STILLWATER VOR/DME109.6011W

Heliport Services

Runway Information

Helipad H1

Dimensions: 44 x 44 ft. / 13 x 13 m
Surface: concrete
Latitude: 41-35.390167N
Longitude: 075-15.716667W
Elevation: 982.0 ft.
Traffic pattern: leftleft

Heliport Ownership and Management from official FAA records

Ownership: Privately-owned
Owner: WAYNE MEMORIAL HOSPITAL
601 PARK ST.
HONESDALE, PA 18431
Phone 570 253 8169
Manager: WAYNE MEMORIAL HOSPITAL
601 PARK ST
HONESDALE, PA 18431
Phone 570 253 8169

Additional Remarks

FOR CD CTC WILKES-BARRE APCH AT 570-655-2084.

Instrument Procedures

There are no published instrument procedures at 7PA7.

Some nearby airports with instrument procedures:

N30 - Cherry Ridge Airport (4 nm S)
70N - Spring Hill Airport (16 nm SW)
KMSV - Sullivan County International Airport (22 nm E)
9N3 - Seamans Field Airport (22 nm W)
KAVP - Wilkes-Barre/Scranton International Airport (26 nm SW)
 
Loc | Ops | Rwys | IFR | FBO | Links
Com | Nav | Svcs | Stats | Notes
Aerial photo
No photo
 
Airport distance calculator
Flying to Wayne Memorial Hospital Heliport? Find the distance to fly.

From to 7PA7

Sunrise and sunset
Times for 12-Nov-2019
 Local
(UTC-5)
 Zulu
(UTC)
Morning civil twilight06:1811:18
Sunrise06:4711:47
Sunset16:4321:43
Evening civil twilight17:1322:13

Current date and time
Zulu (UTC)  12-Nov-2019 17:33:07
Local (UTC-5)  12-Nov-2019 12:33:07
 
METAR
KMSV 
22nm E 
121656Z AUTO 31015G23KT 9SM -SN BKN021 M05/M08 A2991 RMK AO2 PK WND 31029/1626 SNB21 SLP142 P0000 T10501083 FZRANO
KAVP 
26nm SW 
121654Z 33014G18KT 10SM BKN021 OVC028 M02/M07 A2997 RMK AO2 UPB39E48 SLP155 P0000 T10221072
KMPO 
28nm S 
121653Z AUTO 30016G28KT 10SM OVC018 M05/M08 A2987 RMK AO2 PK WND 32031/1601 SLP133 T10501083 $
KFWN 
37nm SE 
121653Z AUTO 35007G18KT 310V020 10SM FEW029 OVC100 M01/M07 A2994 RMK AO2 SLP142 T10061072
K12N 
42nm SE 
121654Z AUTO VRB05G17KT M01/M06 A2993 RMK AO1 SLP142 T10061061
KMGJ 
45nm E 
SuperAWOS
121654Z AUTO 31013G25KT 10SM OVC100 M01/M07 A2988 RMK AO2 PK WND 30028/1628 SLP122 T10061067
TAF
KAVP 
26nm SW 
121545Z 1216/1312 34011G19KT P6SM OVC018 FM121900 32014G22KT P6SM BKN035 FM122300 30011G17KT P6SM SCT040
NOTAMs
Click for the latest NOTAMs
NOTAMs are issued by the DoD/FAA and will open in a separate window not controlled by AirNav.

 

 
 

Would you like to see your business listed on this page?

 If your business provides an interesting product or service to pilots, flight crews, aircraft, or users of the Wayne Memorial Hospital Heliport, you should consider listing it here.  To start the listing process, click on the button below
 
Add a business
 

Other Pages about Wayne Memorial Hospital Heliport

Update a link
 
Copyright © AirNav, LLC. All rights reserved. Privacy Policy  Contact